createdAt,value
2019-06-27T00:00:40.057Z,17.30
2019-06-27T00:01:40.036Z,17.30
2019-06-27T00:02:40.059Z,17.30
2019-06-27T00:03:39.992Z,17.33
2019-06-27T00:04:39.968Z,17.18
2019-06-27T00:05:39.944Z,17.26
2019-06-27T00:06:39.922Z,17.21
2019-06-27T00:07:39.898Z,17.21
2019-06-27T00:08:39.876Z,17.18
2019-06-27T00:09:39.855Z,17.30
2019-06-27T00:10:39.832Z,17.22
2019-06-27T00:11:39.815Z,17.16
2019-06-27T00:12:39.787Z,17.31
2019-06-27T00:13:39.767Z,17.23
2019-06-27T00:14:39.742Z,17.31
2019-06-27T00:15:39.721Z,17.18
2019-06-27T00:16:39.700Z,17.25
2019-06-27T00:17:39.676Z,17.23
2019-06-27T00:18:39.652Z,17.26
2019-06-27T00:19:39.630Z,17.23
2019-06-27T00:20:39.607Z,17.21
2019-06-27T00:21:39.588Z,17.23
2019-06-27T00:22:41.292Z,17.18
2019-06-27T00:23:39.539Z,17.14
2019-06-27T00:24:39.517Z,17.14
2019-06-27T00:25:39.497Z,17.16
2019-06-27T00:26:55.857Z,17.14
2019-06-27T00:27:39.452Z,17.19
2019-06-27T00:28:39.427Z,17.11
2019-06-27T00:29:39.403Z,17.06
2019-06-27T00:30:39.381Z,17.06
2019-06-27T00:31:39.358Z,17.01
2019-06-27T00:32:39.336Z,17.00
2019-06-27T00:33:39.313Z,17.03
2019-06-27T00:34:39.297Z,16.98
2019-06-27T00:35:39.268Z,17.01
2019-06-27T00:36:39.245Z,16.96
2019-06-27T00:37:39.222Z,16.98
2019-06-27T00:38:39.197Z,16.97
2019-06-27T00:39:39.177Z,16.82
2019-06-27T00:40:39.153Z,16.89
2019-06-27T00:41:39.130Z,16.86
2019-06-27T00:42:39.127Z,16.83
2019-06-27T00:43:39.085Z,16.85
2019-06-27T00:44:39.063Z,16.86
2019-06-27T00:45:39.038Z,16.88
2019-06-27T00:46:39.019Z,16.82
2019-06-27T00:47:38.992Z,16.76
2019-06-27T00:48:38.970Z,16.75
2019-06-27T00:49:38.948Z,16.73
2019-06-27T00:50:38.924Z,16.75
2019-06-27T00:51:38.902Z,16.70
2019-06-27T00:52:38.883Z,16.67
2019-06-27T00:53:38.857Z,16.71
2019-06-27T00:54:38.832Z,16.64
2019-06-27T00:55:38.811Z,16.70
2019-06-27T00:56:38.788Z,16.64
2019-06-27T00:57:38.765Z,16.70
2019-06-27T00:58:38.742Z,16.64
2019-06-27T00:59:38.720Z,16.53
2019-06-27T01:00:38.696Z,16.56
2019-06-27T01:01:38.673Z,16.56
2019-06-27T01:02:38.650Z,16.42
2019-06-27T01:03:38.628Z,16.38
2019-06-27T01:04:38.604Z,16.31
2019-06-27T01:05:38.580Z,16.38
2019-06-27T01:06:38.557Z,16.35
2019-06-27T01:07:38.535Z,16.30
2019-06-27T01:08:38.515Z,16.21
2019-06-27T01:09:38.489Z,16.27
2019-06-27T01:10:38.465Z,16.24
2019-06-27T01:11:38.445Z,16.20
2019-06-27T01:12:38.423Z,16.11
2019-06-27T01:13:38.399Z,16.09
2019-06-27T01:14:38.377Z,16.05
2019-06-27T01:15:38.349Z,16.08
2019-06-27T01:16:38.330Z,15.97
2019-06-27T01:17:38.304Z,15.87
2019-06-27T01:18:38.280Z,15.86
2019-06-27T01:19:38.305Z,15.84
2019-06-27T01:20:38.234Z,15.75
2019-06-27T01:21:38.211Z,15.83
2019-06-27T01:22:38.186Z,15.76
2019-06-27T01:23:38.163Z,15.76
2019-06-27T01:24:38.144Z,15.65
2019-06-27T01:25:38.124Z,15.57
2019-06-27T01:26:38.093Z,15.54
2019-06-27T01:27:38.069Z,15.59
2019-06-27T01:28:38.045Z,15.50
2019-06-27T01:29:38.029Z,15.46
2019-06-27T01:30:38.000Z,15.47
2019-06-27T01:31:37.975Z,15.34
2019-06-27T01:32:37.951Z,15.31
2019-06-27T01:33:37.930Z,15.32
2019-06-27T01:34:37.922Z,15.28
2019-06-27T01:35:37.879Z,15.31
2019-06-27T01:36:37.861Z,15.29
2019-06-27T01:37:37.833Z,15.17
2019-06-27T01:38:37.808Z,15.10
2019-06-27T01:39:37.784Z,15.13
2019-06-27T01:40:37.792Z,15.13
2019-06-27T01:41:37.737Z,15.09
2019-06-27T01:42:37.712Z,14.94
2019-06-27T01:43:37.690Z,14.94
2019-06-27T01:44:37.666Z,14.92
2019-06-27T01:45:37.642Z,14.94
2019-06-27T01:46:37.618Z,14.91
2019-06-27T01:47:37.594Z,14.84
2019-06-27T01:48:37.577Z,14.86
2019-06-27T01:49:37.545Z,14.83
2019-06-27T01:50:37.562Z,14.83
2019-06-27T01:51:37.499Z,14.80
2019-06-27T01:52:37.474Z,14.81
2019-06-27T01:53:37.450Z,14.69
2019-06-27T01:54:37.428Z,14.77
2019-06-27T01:55:37.411Z,14.75
2019-06-27T01:56:37.376Z,14.77
2019-06-27T01:57:46.616Z,14.68
2019-06-27T01:58:37.328Z,14.68
2019-06-27T01:59:37.307Z,14.69
2019-06-27T02:00:37.381Z,14.80
2019-06-27T02:01:37.273Z,14.69
2019-06-27T02:02:37.243Z,14.69
2019-06-27T02:03:37.207Z,14.80
2019-06-27T02:04:37.276Z,14.78
2019-06-27T02:05:37.163Z,14.73
2019-06-27T02:06:37.135Z,14.75
2019-06-27T02:07:37.110Z,14.65
2019-06-27T02:08:37.087Z,14.68
2019-06-27T02:09:37.076Z,14.62
2019-06-27T02:10:37.037Z,14.62
2019-06-27T02:11:37.013Z,14.51
2019-06-27T02:12:36.990Z,14.55
2019-06-27T02:13:36.966Z,14.50
2019-06-27T02:14:36.940Z,14.62
2019-06-27T02:15:36.917Z,14.52
2019-06-27T02:16:36.892Z,14.62
2019-06-27T02:17:36.868Z,14.54
2019-06-27T02:18:36.847Z,14.58
2019-06-27T02:19:36.823Z,14.57
2019-06-27T02:20:36.794Z,14.50
2019-06-27T02:21:36.776Z,14.50
2019-06-27T02:22:36.800Z,14.42
2019-06-27T02:23:36.719Z,14.50
2019-06-27T02:24:36.697Z,14.42
2019-06-27T02:25:36.672Z,14.45
2019-06-27T02:26:36.647Z,14.45
2019-06-27T02:27:36.622Z,14.45
2019-06-27T02:28:36.598Z,14.43
2019-06-27T02:29:36.574Z,14.33
2019-06-27T02:30:36.554Z,14.28
2019-06-27T02:31:36.527Z,14.25
2019-06-27T02:32:36.502Z,14.24
2019-06-27T02:33:36.505Z,14.20
2019-06-27T02:34:36.456Z,14.18
2019-06-27T02:35:36.450Z,14.07
2019-06-27T02:36:36.402Z,14.06
2019-06-27T02:37:36.380Z,14.14
2019-06-27T02:38:36.354Z,14.10
2019-06-27T02:39:36.331Z,14.04
2019-06-27T02:40:36.321Z,13.99
2019-06-27T02:41:36.286Z,14.04
2019-06-27T02:42:36.257Z,13.99
2019-06-27T02:43:36.233Z,13.87
2019-06-27T02:44:36.206Z,13.91
2019-06-27T02:45:36.237Z,13.97
2019-06-27T02:46:36.162Z,13.89
2019-06-27T02:47:36.132Z,13.99
2019-06-27T02:48:36.108Z,13.97
2019-06-27T02:49:36.085Z,13.99
2019-06-27T02:50:36.057Z,13.92
2019-06-27T02:51:36.036Z,13.92
2019-06-27T02:52:36.026Z,13.97
2019-06-27T02:53:35.991Z,13.89
2019-06-27T02:54:35.960Z,13.84
2019-06-27T02:55:35.938Z,13.85
2019-06-27T02:56:35.912Z,13.84
2019-06-27T02:57:35.902Z,13.87
2019-06-27T02:58:35.877Z,13.92
2019-06-27T02:59:35.838Z,14.03
2019-06-27T03:00:35.814Z,13.99
2019-06-27T03:01:35.787Z,13.92
2019-06-27T03:02:35.763Z,13.88
2019-06-27T03:03:35.738Z,13.91
2019-06-27T03:04:35.715Z,13.81
2019-06-27T03:05:35.689Z,13.85
2019-06-27T03:06:35.663Z,13.81
2019-06-27T03:07:35.637Z,14.00
2019-06-27T03:08:35.614Z,13.95
2019-06-27T03:09:35.591Z,14.02
2019-06-27T03:10:35.570Z,14.02
2019-06-27T03:11:35.539Z,13.88
2019-06-27T03:12:35.522Z,13.96
2019-06-27T03:13:35.492Z,13.95
2019-06-27T03:14:35.466Z,13.82
2019-06-27T03:15:35.440Z,13.84
2019-06-27T03:16:35.416Z,13.75
2019-06-27T03:17:35.390Z,13.79
2019-06-27T03:18:35.368Z,13.79
2019-06-27T03:19:35.341Z,13.88
2019-06-27T03:20:35.314Z,13.77
2019-06-27T03:21:35.291Z,13.85
2019-06-27T03:22:35.269Z,13.87
2019-06-27T03:23:35.244Z,13.85
2019-06-27T03:24:35.219Z,13.87
2019-06-27T03:25:35.193Z,13.92
2019-06-27T03:26:35.171Z,13.79
2019-06-27T03:27:35.144Z,13.92
2019-06-27T03:28:50.911Z,13.85
2019-06-27T03:29:35.093Z,13.92
2019-06-27T03:30:35.066Z,13.85
2019-06-27T03:31:35.042Z,13.78
2019-06-27T03:32:35.018Z,13.82
2019-06-27T03:33:35.020Z,13.88
2019-06-27T03:34:34.970Z,13.89
2019-06-27T03:35:34.988Z,13.89
2019-06-27T03:36:34.917Z,13.82
2019-06-27T03:37:34.892Z,13.95
2019-06-27T03:38:34.945Z,13.97
2019-06-27T03:39:34.841Z,13.95
2019-06-27T03:40:34.817Z,13.97
2019-06-27T03:41:34.793Z,13.92
2019-06-27T03:42:34.809Z,14.00
2019-06-27T03:43:34.742Z,13.92
2019-06-27T03:44:34.717Z,14.04
2019-06-27T03:45:34.701Z,13.96
2019-06-27T03:46:34.667Z,13.96
2019-06-27T03:47:34.642Z,13.97
2019-06-27T03:48:34.641Z,13.99
2019-06-27T03:49:34.593Z,13.92
2019-06-27T03:50:34.566Z,13.92
2019-06-27T03:51:34.542Z,13.96
2019-06-27T03:52:34.519Z,13.91
2019-06-27T03:53:34.493Z,14.00
2019-06-27T03:54:34.467Z,13.92
2019-06-27T03:55:34.442Z,13.97
2019-06-27T03:56:34.417Z,14.09
2019-06-27T03:57:34.394Z,13.96
2019-06-27T03:58:34.366Z,13.88
2019-06-27T03:59:34.343Z,13.97
2019-06-27T04:00:34.317Z,13.99
2019-06-27T04:01:34.292Z,13.92
2019-06-27T04:02:34.265Z,14.02
2019-06-27T04:03:34.244Z,14.03
2019-06-27T04:04:34.244Z,13.96
2019-06-27T04:05:34.193Z,13.96
2019-06-27T04:06:34.174Z,14.06
2019-06-27T04:07:34.142Z,14.07
2019-06-27T04:08:34.117Z,13.99
2019-06-27T04:09:34.119Z,14.06
2019-06-27T04:10:34.071Z,14.10
2019-06-27T04:11:34.041Z,14.12
2019-06-27T04:12:34.024Z,14.09
2019-06-27T04:13:33.994Z,14.15
2019-06-27T04:14:33.983Z,14.18
2019-06-27T04:15:33.946Z,14.15
2019-06-27T04:16:33.917Z,14.25
2019-06-27T04:17:33.905Z,14.24
2019-06-27T04:18:33.867Z,14.37
2019-06-27T04:19:33.843Z,14.37
2019-06-27T04:20:33.817Z,14.50
2019-06-27T04:21:33.792Z,14.40
2019-06-27T04:22:33.767Z,14.55
2019-06-27T04:23:33.749Z,14.61
2019-06-27T04:24:33.723Z,14.62
2019-06-27T04:25:33.696Z,14.61
2019-06-27T04:26:33.670Z,14.57
2019-06-27T04:27:33.644Z,14.61
2019-06-27T04:28:33.626Z,14.62
2019-06-27T04:29:34.706Z,14.69
2019-06-27T04:30:33.569Z,14.60
2019-06-27T04:31:33.545Z,14.68
2019-06-27T04:32:33.520Z,14.69
2019-06-27T04:33:33.496Z,14.69
2019-06-27T04:34:33.471Z,14.72
2019-06-27T04:35:33.545Z,14.70
2019-06-27T04:36:33.422Z,14.80
2019-06-27T04:37:33.396Z,14.83
2019-06-27T04:38:33.373Z,14.98
2019-06-27T04:39:33.348Z,14.91
2019-06-27T04:40:33.331Z,14.84
2019-06-27T04:41:33.301Z,14.84
2019-06-27T04:42:33.274Z,14.86
2019-06-27T04:43:33.252Z,14.83
2019-06-27T04:44:33.235Z,14.81
2019-06-27T04:45:33.205Z,14.80
2019-06-27T04:46:33.185Z,14.88
2019-06-27T04:47:33.152Z,14.83
2019-06-27T04:48:33.128Z,14.80
2019-06-27T04:49:33.105Z,14.83
2019-06-27T04:50:33.101Z,14.89
2019-06-27T04:51:33.054Z,14.77
2019-06-27T04:52:33.031Z,14.84
2019-06-27T04:53:33.019Z,14.84
2019-06-27T04:54:32.987Z,14.91
2019-06-27T04:55:32.981Z,15.07
2019-06-27T04:56:32.933Z,15.09
2019-06-27T04:57:32.910Z,15.07
2019-06-27T04:58:32.883Z,15.20
2019-06-27T04:59:48.155Z,15.19
2019-06-27T05:00:32.836Z,15.38
2019-06-27T05:01:32.829Z,15.39
2019-06-27T05:02:32.788Z,15.39
2019-06-27T05:03:32.763Z,15.51
2019-06-27T05:04:32.738Z,15.50
2019-06-27T05:05:32.717Z,15.44
2019-06-27T05:06:32.842Z,15.62
2019-06-27T05:07:32.692Z,15.71
2019-06-27T05:08:32.653Z,15.83
2019-06-27T05:09:32.622Z,15.87
2019-06-27T05:10:32.597Z,16.07
2019-06-27T05:11:32.571Z,16.21
2019-06-27T05:12:32.552Z,16.45
2019-06-27T05:13:32.525Z,16.53
2019-06-27T05:14:32.769Z,16.64
2019-06-27T05:15:32.478Z,16.73
2019-06-27T05:16:32.468Z,16.68
2019-06-27T05:17:32.431Z,16.79
2019-06-27T05:18:32.410Z,16.68
2019-06-27T05:19:32.386Z,16.78
2019-06-27T05:20:32.364Z,16.73
2019-06-27T05:21:32.340Z,16.88
2019-06-27T05:22:32.317Z,17.01
2019-06-27T05:23:32.295Z,16.89
2019-06-27T05:24:32.272Z,16.64
2019-06-27T05:25:32.250Z,16.38
2019-06-27T05:26:32.226Z,16.50
2019-06-27T05:27:32.204Z,16.39
2019-06-27T05:28:32.181Z,16.41
2019-06-27T05:29:32.163Z,16.63
2019-06-27T05:30:32.142Z,16.88
2019-06-27T05:31:32.114Z,16.93
2019-06-27T05:32:32.102Z,16.76
2019-06-27T05:33:32.071Z,16.64
2019-06-27T05:34:32.048Z,16.78
2019-06-27T05:35:32.024Z,17.30
2019-06-27T05:36:32.005Z,17.72
2019-06-27T05:37:31.983Z,17.49
2019-06-27T05:38:31.958Z,17.28
2019-06-27T05:39:31.938Z,17.36
2019-06-27T05:40:31.918Z,18.00
2019-06-27T05:41:31.898Z,17.84
2019-06-27T05:42:31.872Z,17.79
2019-06-27T05:43:31.849Z,17.86
2019-06-27T05:44:31.828Z,18.91
2019-06-27T05:45:31.809Z,19.59
2019-06-27T05:46:31.786Z,20.14
2019-06-27T05:47:31.763Z,20.05
2019-06-27T05:48:31.744Z,20.88
2019-06-27T05:49:31.720Z,21.06
2019-06-27T05:50:31.699Z,21.44
2019-06-27T05:51:31.680Z,21.58
2019-06-27T05:52:31.660Z,21.54
2019-06-27T05:53:31.641Z,21.52
2019-06-27T05:54:31.619Z,21.56
2019-06-27T05:55:31.601Z,21.77
2019-06-27T05:56:31.583Z,22.07
2019-06-27T05:57:31.561Z,21.69
2019-06-27T05:58:31.543Z,21.34
2019-06-27T05:59:31.523Z,21.61
2019-06-27T06:00:31.505Z,21.83
2019-06-27T06:01:31.489Z,21.68
2019-06-27T06:02:31.468Z,21.50
2019-06-27T06:03:31.449Z,21.46
2019-06-27T06:04:31.431Z,21.68
2019-06-27T06:05:31.413Z,21.74
2019-06-27T06:06:31.393Z,22.18
2019-06-27T06:07:31.377Z,22.33
2019-06-27T06:08:31.358Z,22.33
2019-06-27T06:09:32.983Z,22.36
2019-06-27T06:10:31.322Z,22.15
2019-06-27T06:11:31.323Z,22.46
2019-06-27T06:12:31.285Z,22.58
2019-06-27T06:13:31.272Z,21.88
2019-06-27T06:14:31.252Z,21.72
2019-06-27T06:15:31.232Z,21.54
2019-06-27T06:16:31.219Z,21.54
2019-06-27T06:17:31.252Z,22.09
2019-06-27T06:18:31.197Z,22.07
2019-06-27T06:19:31.162Z,22.65
2019-06-27T06:20:31.144Z,22.73
2019-06-27T06:21:31.128Z,22.83
2019-06-27T06:22:31.108Z,22.39
2019-06-27T06:23:31.091Z,22.18
2019-06-27T06:24:31.074Z,21.91
2019-06-27T06:25:31.065Z,22.14
2019-06-27T06:26:31.051Z,22.54
2019-06-27T06:27:31.023Z,22.07
2019-06-27T06:28:31.005Z,22.21
2019-06-27T06:29:30.989Z,22.33
2019-06-27T06:30:43.983Z,22.72
2019-06-27T06:31:30.955Z,22.58
2019-06-27T06:32:30.942Z,22.28
2019-06-27T06:33:30.922Z,22.39
2019-06-27T06:34:30.904Z,22.35
2019-06-27T06:35:30.886Z,22.79
2019-06-27T06:36:30.882Z,22.92
2019-06-27T06:37:30.852Z,22.54
2019-06-27T06:38:30.835Z,22.35
2019-06-27T06:39:30.818Z,22.36
2019-06-27T06:40:30.804Z,22.54
2019-06-27T06:41:30.792Z,22.68
2019-06-27T06:42:30.772Z,22.75
2019-06-27T06:43:30.752Z,23.13
2019-06-27T06:44:30.757Z,23.10
2019-06-27T06:45:30.717Z,23.43
2019-06-27T06:46:30.709Z,23.55
2019-06-27T06:47:30.686Z,23.63
2019-06-27T06:48:30.668Z,23.51
2019-06-27T06:49:30.665Z,23.57
2019-06-27T06:50:30.634Z,23.75
2019-06-27T06:51:30.617Z,24.06
2019-06-27T06:52:30.602Z,24.37
2019-06-27T06:53:30.586Z,23.70
2019-06-27T06:54:30.574Z,23.40
2019-06-27T06:55:30.560Z,23.38
2019-06-27T06:56:30.538Z,23.66
2019-06-27T06:57:30.524Z,23.97
2019-06-27T06:58:30.505Z,24.64
2019-06-27T06:59:30.490Z,25.00
2019-06-27T07:00:30.496Z,25.00
2019-06-27T07:01:30.458Z,25.02
2019-06-27T07:02:30.443Z,24.88
2019-06-27T07:03:30.432Z,24.42
2019-06-27T07:04:30.415Z,24.09
2019-06-27T07:05:30.399Z,23.51
2019-06-27T07:06:30.381Z,23.78
2019-06-27T07:07:30.470Z,23.63
2019-06-27T07:08:30.369Z,24.10
2019-06-27T07:09:30.365Z,24.50
2019-06-27T07:10:30.320Z,24.45
2019-06-27T07:11:30.305Z,24.64
2019-06-27T07:12:30.292Z,24.78
2019-06-27T07:13:30.276Z,23.91
2019-06-27T07:14:30.259Z,23.91
2019-06-27T07:15:30.263Z,23.91
2019-06-27T07:16:30.230Z,24.31
2019-06-27T07:17:30.231Z,24.45
2019-06-27T07:18:30.242Z,25.25
2019-06-27T07:19:30.184Z,25.67
2019-06-27T07:20:30.172Z,25.30
2019-06-27T07:21:30.154Z,25.76
2019-06-27T07:22:30.142Z,26.06
2019-06-27T07:23:30.123Z,26.35
2019-06-27T07:24:30.108Z,25.98
2019-06-27T07:25:30.160Z,25.82
2019-06-27T07:26:30.079Z,25.98
2019-06-27T07:27:30.066Z,25.75
2019-06-27T07:28:30.057Z,25.64
2019-06-27T07:29:30.040Z,26.30
2019-06-27T07:30:30.021Z,25.72
2019-06-27T07:31:30.007Z,25.61
2019-06-27T07:32:29.991Z,24.88
2019-06-27T07:33:29.977Z,25.05
2019-06-27T07:34:29.963Z,25.00
2019-06-27T07:35:29.947Z,25.06
2019-06-27T07:36:29.935Z,25.15
2019-06-27T07:37:29.938Z,25.61
2019-06-27T07:38:29.915Z,25.72
2019-06-27T07:39:29.891Z,25.35
2019-06-27T07:40:29.878Z,25.10
2019-06-27T07:41:29.863Z,25.60
2019-06-27T07:42:29.854Z,25.46
2019-06-27T07:43:29.838Z,25.46
2019-06-27T07:44:29.822Z,25.36
2019-06-27T07:45:29.805Z,25.35
2019-06-27T07:46:29.792Z,24.98
2019-06-27T07:47:29.773Z,24.88
2019-06-27T07:48:29.759Z,24.68
2019-06-27T07:49:33.091Z,24.98
2019-06-27T07:50:29.734Z,24.58
2019-06-27T07:51:29.713Z,24.84
2019-06-27T07:52:29.701Z,25.08
2019-06-27T07:53:29.687Z,25.70
2019-06-27T07:54:29.671Z,24.88
2019-06-27T07:55:29.656Z,24.87
2019-06-27T07:56:29.640Z,25.13
2019-06-27T07:57:29.623Z,25.28
2019-06-27T07:58:29.608Z,25.67
2019-06-27T07:59:29.674Z,25.77
2019-06-27T08:00:29.579Z,25.91
2019-06-27T08:01:34.934Z,26.55
2019-06-27T08:02:29.551Z,27.24
2019-06-27T08:03:29.537Z,27.04
2019-06-27T08:04:29.517Z,27.32
2019-06-27T08:05:29.503Z,27.12
2019-06-27T08:06:29.487Z,26.91
2019-06-27T08:07:29.473Z,26.70
2019-06-27T08:08:29.462Z,25.88
2019-06-27T08:09:29.445Z,25.72
2019-06-27T08:10:29.459Z,26.10
2019-06-27T08:11:29.417Z,26.23
2019-06-27T08:12:29.401Z,26.39
2019-06-27T08:13:29.387Z,26.43
2019-06-27T08:14:29.375Z,26.39
2019-06-27T08:15:29.357Z,26.36
2019-06-27T08:16:29.343Z,26.70
2019-06-27T08:17:29.380Z,26.44
2019-06-27T08:18:29.317Z,25.87
2019-06-27T08:19:29.298Z,26.10
2019-06-27T08:20:29.290Z,25.55
2019-06-27T08:21:29.271Z,25.10
2019-06-27T08:22:29.256Z,25.61
2019-06-27T08:23:40.945Z,25.90
2019-06-27T08:24:29.227Z,25.97
2019-06-27T08:25:29.235Z,25.72
2019-06-27T08:26:29.200Z,25.98
2019-06-27T08:27:29.184Z,26.33
2019-06-27T08:28:29.170Z,26.50
2019-06-27T08:29:29.158Z,27.02
2019-06-27T08:30:29.144Z,27.36
2019-06-27T08:31:29.185Z,26.92
2019-06-27T08:32:29.117Z,26.69
2019-06-27T08:33:29.101Z,27.06
2019-06-27T08:34:29.088Z,26.94
2019-06-27T08:35:29.089Z,26.57
2019-06-27T08:36:29.057Z,26.67
2019-06-27T08:37:29.047Z,26.33
2019-06-27T08:38:29.030Z,26.07
2019-06-27T08:39:29.016Z,26.12
2019-06-27T08:40:29.007Z,25.90
2019-06-27T08:41:28.989Z,25.50
2019-06-27T08:42:28.976Z,25.87
2019-06-27T08:43:28.976Z,26.15
2019-06-27T08:44:29.465Z,26.62
2019-06-27T08:45:28.934Z,26.28
2019-06-27T08:46:29.899Z,26.01
2019-06-27T08:47:28.905Z,26.37
2019-06-27T08:48:28.891Z,26.32
2019-06-27T08:49:28.874Z,26.75
2019-06-27T08:50:28.871Z,27.21
2019-06-27T08:51:28.866Z,27.25
2019-06-27T08:52:28.831Z,27.02
2019-06-27T08:53:28.819Z,27.02
2019-06-27T08:54:28.804Z,26.57
2019-06-27T08:55:28.790Z,26.43
2019-06-27T08:56:28.775Z,26.65
2019-06-27T08:57:28.763Z,26.76
2019-06-27T08:58:28.745Z,27.06
2019-06-27T08:59:28.738Z,27.00
2019-06-27T09:00:28.719Z,26.55
2019-06-27T09:01:28.711Z,26.47
2019-06-27T09:02:28.691Z,25.87
2019-06-27T09:03:28.681Z,26.35
2019-06-27T09:04:28.675Z,26.26
2019-06-27T09:05:28.648Z,26.45
2019-06-27T09:06:28.639Z,26.52
2019-06-27T09:07:28.618Z,26.32
2019-06-27T09:08:28.607Z,25.97
2019-06-27T09:09:28.592Z,25.85
2019-06-27T09:10:28.576Z,25.88
2019-06-27T09:11:28.708Z,25.88
2019-06-27T09:12:28.548Z,26.28
2019-06-27T09:13:28.542Z,26.23
2019-06-27T09:14:28.518Z,26.45
2019-06-27T09:15:28.505Z,26.60
2019-06-27T09:16:28.488Z,26.33
2019-06-27T09:17:28.475Z,25.99
2019-06-27T09:18:28.458Z,26.37
2019-06-27T09:19:28.446Z,26.60
2019-06-27T09:20:28.429Z,26.54
2019-06-27T09:21:28.415Z,26.60
2019-06-27T09:22:28.402Z,26.87
2019-06-27T09:23:28.386Z,27.06
2019-06-27T09:24:28.376Z,27.09
2019-06-27T09:25:28.361Z,27.63
2019-06-27T09:26:28.342Z,27.37
2019-06-27T09:27:28.328Z,27.17
2019-06-27T09:28:28.329Z,27.62
2019-06-27T09:29:28.301Z,27.09
2019-06-27T09:30:28.289Z,27.09
2019-06-27T09:31:28.274Z,27.34
2019-06-27T09:32:28.258Z,27.74
2019-06-27T09:33:28.247Z,27.44
2019-06-27T09:34:28.230Z,27.46
2019-06-27T09:35:28.215Z,27.12
2019-06-27T09:36:28.201Z,26.65
2019-06-27T09:37:28.191Z,26.48
2019-06-27T09:38:28.172Z,25.95
2019-06-27T09:39:28.158Z,26.33
2019-06-27T09:40:28.149Z,26.37
2019-06-27T09:41:28.131Z,26.65
2019-06-27T09:42:28.132Z,26.72
2019-06-27T09:43:28.102Z,26.84
2019-06-27T09:44:28.088Z,26.57
2019-06-27T09:45:28.079Z,26.29
2019-06-27T09:46:28.058Z,26.29
2019-06-27T09:47:28.044Z,26.81
2019-06-27T09:48:28.030Z,26.97
2019-06-27T09:49:28.016Z,26.99
2019-06-27T09:50:28.000Z,27.27
2019-06-27T09:51:27.987Z,27.25
2019-06-27T09:52:27.973Z,27.04
2019-06-27T09:53:27.959Z,26.63
2019-06-27T09:54:27.944Z,27.04
2019-06-27T09:55:27.929Z,26.99
2019-06-27T09:56:27.928Z,26.89
2019-06-27T09:57:27.902Z,26.82
2019-06-27T09:58:27.886Z,26.52
2019-06-27T09:59:27.872Z,26.44
2019-06-27T10:00:27.860Z,26.43
2019-06-27T10:01:27.845Z,26.73
2019-06-27T10:02:41.088Z,26.81
2019-06-27T10:03:27.814Z,26.60
2019-06-27T10:04:27.806Z,26.54
2019-06-27T10:05:27.789Z,26.75
2019-06-27T10:06:27.773Z,26.45
2019-06-27T10:07:27.757Z,26.44
2019-06-27T10:08:27.747Z,26.43
2019-06-27T10:09:27.728Z,26.12
2019-06-27T10:10:27.717Z,26.39
2019-06-27T10:11:27.699Z,26.70
2019-06-27T10:12:41.133Z,26.69
2019-06-27T10:13:27.670Z,26.32
2019-06-27T10:14:27.654Z,26.39
2019-06-27T10:15:27.641Z,26.40
2019-06-27T10:16:27.627Z,26.37
2019-06-27T10:17:27.613Z,26.48
2019-06-27T10:18:27.596Z,26.25
2019-06-27T10:19:27.586Z,26.45
2019-06-27T10:20:27.567Z,26.55
2019-06-27T10:21:27.559Z,26.73
2019-06-27T10:22:27.542Z,26.87
2019-06-27T10:23:27.523Z,26.94
2019-06-27T10:24:27.513Z,26.69
2019-06-27T10:25:27.494Z,26.63
2019-06-27T10:26:27.481Z,26.39
2019-06-27T10:27:27.469Z,26.54
2019-06-27T10:28:27.452Z,26.87
2019-06-27T10:29:27.441Z,26.70
2019-06-27T10:30:27.421Z,26.58
2019-06-27T10:31:27.406Z,26.28
2019-06-27T10:32:27.394Z,26.36
2019-06-27T10:33:27.391Z,26.25
2019-06-27T10:34:27.364Z,26.60
2019-06-27T10:35:27.403Z,27.00
2019-06-27T10:36:27.335Z,27.29
2019-06-27T10:37:27.323Z,27.65
2019-06-27T10:38:27.303Z,27.92
2019-06-27T10:39:27.291Z,28.04
2019-06-27T10:40:27.279Z,27.94
2019-06-27T10:41:27.262Z,27.99
2019-06-27T10:42:27.248Z,27.96
2019-06-27T10:43:27.233Z,27.90
2019-06-27T10:44:27.220Z,27.90
2019-06-27T10:45:27.205Z,28.14
2019-06-27T10:46:27.189Z,28.06
2019-06-27T10:47:27.177Z,28.02
2019-06-27T10:48:27.162Z,27.94
2019-06-27T10:49:27.148Z,28.22
2019-06-27T10:50:27.135Z,28.09
2019-06-27T10:51:27.121Z,28.27
2019-06-27T10:52:27.162Z,28.43
2019-06-27T10:53:27.095Z,28.46
2019-06-27T10:54:27.077Z,27.99
2019-06-27T10:55:27.067Z,27.72
2019-06-27T10:56:27.052Z,27.34
2019-06-27T10:57:27.037Z,27.29
2019-06-27T10:58:27.021Z,27.25
2019-06-27T10:59:27.010Z,27.24
2019-06-27T11:00:26.995Z,27.19
2019-06-27T11:01:26.981Z,27.13
2019-06-27T11:02:26.967Z,26.88
2019-06-27T11:03:26.952Z,27.10
2019-06-27T11:04:26.938Z,26.92
2019-06-27T11:05:26.928Z,27.40
2019-06-27T11:06:26.910Z,27.87
2019-06-27T11:07:26.897Z,27.87
2019-06-27T11:08:26.883Z,27.70
2019-06-27T11:09:26.867Z,27.28
2019-06-27T11:10:26.853Z,27.36
2019-06-27T11:11:26.839Z,27.09
2019-06-27T11:12:26.825Z,27.00
2019-06-27T11:13:26.810Z,26.97
2019-06-27T11:14:26.797Z,26.69
2019-06-27T11:15:26.782Z,26.35
2019-06-27T11:16:26.767Z,26.29
2019-06-27T11:17:26.754Z,26.26
2019-06-27T11:18:26.746Z,26.21
2019-06-27T11:19:26.728Z,26.65
2019-06-27T11:20:26.709Z,26.69
2019-06-27T11:21:26.693Z,26.91
2019-06-27T11:22:26.685Z,27.06
2019-06-27T11:23:26.665Z,27.18
2019-06-27T11:24:26.650Z,27.75
2019-06-27T11:25:26.650Z,28.03
2019-06-27T11:26:26.620Z,27.37
2019-06-27T11:27:27.503Z,27.88
2019-06-27T11:28:26.607Z,27.36
2019-06-27T11:29:26.575Z,27.40
2019-06-27T11:30:26.561Z,27.77
2019-06-27T11:31:26.553Z,27.82
2019-06-27T11:32:26.538Z,27.60
2019-06-27T11:33:32.764Z,27.77
2019-06-27T11:34:26.501Z,27.31
2019-06-27T11:35:26.489Z,27.09
2019-06-27T11:36:26.473Z,27.21
2019-06-27T11:37:26.458Z,27.32
2019-06-27T11:38:26.443Z,26.82
2019-06-27T11:39:26.428Z,26.97
2019-06-27T11:40:26.415Z,27.09
2019-06-27T11:41:26.401Z,27.13
2019-06-27T11:42:29.699Z,27.39
2019-06-27T11:43:26.372Z,27.66
2019-06-27T11:44:26.354Z,27.50
2019-06-27T11:45:26.340Z,27.21
2019-06-27T11:46:26.328Z,27.24
2019-06-27T11:47:26.310Z,27.17
2019-06-27T11:48:26.297Z,27.32
2019-06-27T11:49:26.282Z,27.29
2019-06-27T11:50:26.266Z,27.43
2019-06-27T11:51:26.254Z,27.29
2019-06-27T11:52:26.625Z,27.36
2019-06-27T11:53:26.223Z,27.04
2019-06-27T11:54:26.207Z,26.85
2019-06-27T11:55:26.209Z,26.60
2019-06-27T11:56:26.179Z,26.30
2019-06-27T11:57:26.163Z,26.30
2019-06-27T11:58:26.149Z,26.15
2019-06-27T11:59:26.131Z,26.30
2019-06-27T12:00:26.196Z,26.54
2019-06-27T12:01:26.108Z,26.75
2019-06-27T12:02:26.087Z,26.84
2019-06-27T12:03:26.086Z,26.97
2019-06-27T12:04:26.056Z,26.91
2019-06-27T12:05:26.040Z,26.95
2019-06-27T12:06:26.052Z,26.84
2019-06-27T12:07:26.009Z,26.70
2019-06-27T12:08:25.994Z,26.63
2019-06-27T12:09:25.980Z,26.73
2019-06-27T12:10:25.967Z,27.12
2019-06-27T12:11:25.951Z,27.36
2019-06-27T12:12:25.931Z,26.95
2019-06-27T12:13:25.917Z,26.52
2019-06-27T12:14:25.900Z,26.75
2019-06-27T12:15:25.935Z,26.37
2019-06-27T12:16:25.870Z,26.69
2019-06-27T12:17:25.868Z,26.70
2019-06-27T12:18:25.845Z,26.82
2019-06-27T12:19:25.830Z,26.91
2019-06-27T12:20:25.814Z,27.10
2019-06-27T12:21:25.793Z,27.12
2019-06-27T12:22:25.777Z,27.03
2019-06-27T12:23:25.765Z,26.72
2019-06-27T12:24:25.746Z,27.06
2019-06-27T12:25:25.732Z,27.17
2019-06-27T12:26:25.729Z,27.19
2019-06-27T12:27:25.700Z,27.37
2019-06-27T12:28:25.686Z,27.18
2019-06-27T12:29:25.669Z,27.09
2019-06-27T12:30:25.655Z,26.60
2019-06-27T12:31:25.638Z,27.07
2019-06-27T12:32:25.625Z,27.06
2019-06-27T12:33:25.609Z,27.04
2019-06-27T12:34:25.592Z,26.81
2019-06-27T12:35:25.578Z,27.04
2019-06-27T12:36:25.561Z,27.00
2019-06-27T12:37:25.546Z,27.41
2019-06-27T12:38:25.531Z,27.46
2019-06-27T12:39:25.530Z,27.70
2019-06-27T12:40:25.502Z,27.93
2019-06-27T12:41:25.485Z,27.36
2019-06-27T12:42:32.498Z,27.18
2019-06-27T12:43:25.453Z,27.13
2019-06-27T12:44:25.438Z,26.97
2019-06-27T12:45:25.425Z,26.62
2019-06-27T12:46:25.419Z,26.77
2019-06-27T12:47:25.394Z,26.97
2019-06-27T12:48:25.380Z,27.07
2019-06-27T12:49:41.409Z,27.00
2019-06-27T12:50:25.445Z,27.41
2019-06-27T12:51:25.379Z,27.31
2019-06-27T12:52:25.315Z,27.54